sensor_id;sensor_type;location;lat;lon;timestamp;temperature;humidity
2459;DHT22;1241;50.920;6.936;2022-08-19T00:01:23;21.20;99.90
2459;DHT22;1241;50.920;6.936;2022-08-19T00:03:50;21.10;99.90
2459;DHT22;1241;50.920;6.936;2022-08-19T00:06:16;21.20;99.90
2459;DHT22;1241;50.920;6.936;2022-08-19T00:08:42;21.20;99.90
2459;DHT22;1241;50.920;6.936;2022-08-19T00:11:09;21.30;99.90
2459;DHT22;1241;50.920;6.936;2022-08-19T00:13:35;21.20;99.90
2459;DHT22;1241;50.920;6.936;2022-08-19T00:16:02;21.10;99.90
2459;DHT22;1241;50.920;6.936;2022-08-19T00:18:28;21.10;99.90
2459;DHT22;1241;50.920;6.936;2022-08-19T00:20:53;21.00;99.90
2459;DHT22;1241;50.920;6.936;2022-08-19T00:23:19;21.00;99.90
2459;DHT22;1241;50.920;6.936;2022-08-19T00:25:45;21.00;99.90
2459;DHT22;1241;50.920;6.936;2022-08-19T00:28:11;21.00;99.90
2459;DHT22;1241;50.920;6.936;2022-08-19T00:30:37;21.00;99.90
2459;DHT22;1241;50.920;6.936;2022-08-19T00:33:03;20.90;99.90
2459;DHT22;1241;50.920;6.936;2022-08-19T00:35:28;20.90;99.90
2459;DHT22;1241;50.920;6.936;2022-08-19T00:37:55;20.90;99.90
2459;DHT22;1241;50.920;6.936;2022-08-19T00:40:21;20.90;99.90
2459;DHT22;1241;50.920;6.936;2022-08-19T00:42:47;20.90;99.90
2459;DHT22;1241;50.920;6.936;2022-08-19T00:45:19;20.80;99.90
2459;DHT22;1241;50.920;6.936;2022-08-19T00:47:46;20.80;99.90
2459;DHT22;1241;50.920;6.936;2022-08-19T00:50:15;20.80;99.90
2459;DHT22;1241;50.920;6.936;2022-08-19T00:52:44;20.80;99.90
2459;DHT22;1241;50.920;6.936;2022-08-19T00:55:23;20.70;99.90
2459;DHT22;1241;50.920;6.936;2022-08-19T00:58:04;20.60;99.90
2459;DHT22;1241;50.920;6.936;2022-08-19T01:00:33;20.50;99.90
2459;DHT22;1241;50.920;6.936;2022-08-19T01:03:03;20.40;99.90
2459;DHT22;1241;50.920;6.936;2022-08-19T01:05:30;20.40;99.90
2459;DHT22;1241;50.920;6.936;2022-08-19T01:07:57;20.40;99.90
2459;DHT22;1241;50.920;6.936;2022-08-19T01:10:27;20.40;99.90
2459;DHT22;1241;50.920;6.936;2022-08-19T01:12:54;20.30;99.90
2459;DHT22;1241;50.920;6.936;2022-08-19T01:15:27;20.30;99.90
2459;DHT22;1241;50.920;6.936;2022-08-19T01:17:55;20.20;99.90
2459;DHT22;1241;50.920;6.936;2022-08-19T01:20:23;20.10;99.90
2459;DHT22;1241;50.920;6.936;2022-08-19T01:22:52;20.10;99.90
2459;DHT22;1241;50.920;6.936;2022-08-19T01:25:22;20.00;99.90
2459;DHT22;1241;50.920;6.936;2022-08-19T01:27:49;20.00;99.90
2459;DHT22;1241;50.920;6.936;2022-08-19T01:30:26;20.00;99.90
2459;DHT22;1241;50.920;6.936;2022-08-19T01:32:53;20.10;99.90
2459;DHT22;1241;50.920;6.936;2022-08-19T01:35:20;20.20;99.90
2459;DHT22;1241;50.920;6.936;2022-08-19T01:37:52;20.10;99.90
2459;DHT22;1241;50.920;6.936;2022-08-19T01:40:21;20.10;99.90
2459;DHT22;1241;50.920;6.936;2022-08-19T01:42:50;20.10;99.90
2459;DHT22;1241;50.920;6.936;2022-08-19T01:45:17;20.00;99.90
2459;DHT22;1241;50.920;6.936;2022-08-19T01:47:43;20.00;99.90
2459;DHT22;1241;50.920;6.936;2022-08-19T01:50:10;19.90;99.90
2459;DHT22;1241;50.920;6.936;2022-08-19T01:52:38;19.80;99.90
2459;DHT22;1241;50.920;6.936;2022-08-19T01:55:06;19.80;99.90
2459;DHT22;1241;50.920;6.936;2022-08-19T01:57:33;19.90;99.90
2459;DHT22;1241;50.920;6.936;2022-08-19T01:59:59;19.90;99.90
2459;DHT22;1241;50.920;6.936;2022-08-19T02:02:25;19.90;99.90
2459;DHT22;1241;50.920;6.936;2022-08-19T02:04:51;19.80;99.90
2459;DHT22;1241;50.920;6.936;2022-08-19T02:07:19;19.80;99.90
2459;DHT22;1241;50.920;6.936;2022-08-19T02:09:47;19.80;99.90
2459;DHT22;1241;50.920;6.936;2022-08-19T02:12:14;19.80;99.90
2459;DHT22;1241;50.920;6.936;2022-08-19T02:14:40;19.80;99.90
2459;DHT22;1241;50.920;6.936;2022-08-19T02:17:06;19.70;99.90
2459;DHT22;1241;50.920;6.936;2022-08-19T02:19:32;19.70;99.90
2459;DHT22;1241;50.920;6.936;2022-08-19T02:21:58;19.60;99.90
2459;DHT22;1241;50.920;6.936;2022-08-19T02:24:25;19.60;99.90
2459;DHT22;1241;50.920;6.936;2022-08-19T02:26:51;19.50;99.90
2459;DHT22;1241;50.920;6.936;2022-08-19T02:29:17;19.50;99.90
2459;DHT22;1241;50.920;6.936;2022-08-19T02:31:43;19.50;99.90
2459;DHT22;1241;50.920;6.936;2022-08-19T02:34:08;19.50;99.90
2459;DHT22;1241;50.920;6.936;2022-08-19T02:36:34;19.40;99.90
2459;DHT22;1241;50.920;6.936;2022-08-19T02:39:00;19.40;99.90
2459;DHT22;1241;50.920;6.936;2022-08-19T02:41:28;19.40;99.90
2459;DHT22;1241;50.920;6.936;2022-08-19T02:43:55;19.40;99.90
2459;DHT22;1241;50.920;6.936;2022-08-19T02:46:28;19.40;99.90
2459;DHT22;1241;50.920;6.936;2022-08-19T02:48:57;19.40;99.90
2459;DHT22;1241;50.920;6.936;2022-08-19T02:51:29;19.50;99.90
2459;DHT22;1241;50.920;6.936;2022-08-19T02:53:56;19.50;99.90
2459;DHT22;1241;50.920;6.936;2022-08-19T02:56:22;19.50;99.90
2459;DHT22;1241;50.920;6.936;2022-08-19T02:58:49;19.50;99.90
2459;DHT22;1241;50.920;6.936;2022-08-19T03:01:27;19.40;99.90
2459;DHT22;1241;50.920;6.936;2022-08-19T03:03:54;19.40;99.90
2459;DHT22;1241;50.920;6.936;2022-08-19T03:06:20;19.40;99.90
2459;DHT22;1241;50.920;6.936;2022-08-19T03:08:47;19.40;99.90
2459;DHT22;1241;50.920;6.936;2022-08-19T03:11:16;19.40;99.90
2459;DHT22;1241;50.920;6.936;2022-08-19T03:13:42;19.40;99.90
2459;DHT22;1241;50.920;6.936;2022-08-19T03:16:09;19.40;99.90
2459;DHT22;1241;50.920;6.936;2022-08-19T03:18:34;19.40;99.90
2459;DHT22;1241;50.920;6.936;2022-08-19T03:21:00;19.50;99.90
2459;DHT22;1241;50.920;6.936;2022-08-19T03:23:26;19.50;99.90
2459;DHT22;1241;50.920;6.936;2022-08-19T03:25:53;19.40;99.90
2459;DHT22;1241;50.920;6.936;2022-08-19T03:28:20;19.40;99.90
2459;DHT22;1241;50.920;6.936;2022-08-19T03:30:59;19.50;99.90
2459;DHT22;1241;50.920;6.936;2022-08-19T03:33:27;19.50;99.90
2459;DHT22;1241;50.920;6.936;2022-08-19T03:36:15;19.50;99.90
2459;DHT22;1241;50.920;6.936;2022-08-19T03:38:44;19.50;99.90
2459;DHT22;1241;50.920;6.936;2022-08-19T03:41:13;19.50;99.90
2459;DHT22;1241;50.920;6.936;2022-08-19T03:43:41;19.40;99.90
2459;DHT22;1241;50.920;6.936;2022-08-19T03:46:10;19.30;99.90
2459;DHT22;1241;50.920;6.936;2022-08-19T03:48:38;19.30;99.90
2459;DHT22;1241;50.920;6.936;2022-08-19T03:51:05;19.30;99.90
2459;DHT22;1241;50.920;6.936;2022-08-19T03:53:33;19.30;99.90
2459;DHT22;1241;50.920;6.936;2022-08-19T03:55:59;19.40;99.90
2459;DHT22;1241;50.920;6.936;2022-08-19T03:58:26;19.30;99.90
2459;DHT22;1241;50.920;6.936;2022-08-19T04:00:55;19.30;99.90
2459;DHT22;1241;50.920;6.936;2022-08-19T04:03:21;19.20;99.90
2459;DHT22;1241;50.920;6.936;2022-08-19T04:05:47;19.20;99.90
2459;DHT22;1241;50.920;6.936;2022-08-19T04:08:15;19.20;99.90
2459;DHT22;1241;50.920;6.936;2022-08-19T04:10:46;19.20;99.90
2459;DHT22;1241;50.920;6.936;2022-08-19T04:13:12;19.20;99.90
2459;DHT22;1241;50.920;6.936;2022-08-19T04:15:40;19.20;99.90
2459;DHT22;1241;50.920;6.936;2022-08-19T04:18:08;19.20;99.90
2459;DHT22;1241;50.920;6.936;2022-08-19T04:20:46;19.10;99.90
2459;DHT22;1241;50.920;6.936;2022-08-19T04:23:13;19.20;99.90
2459;DHT22;1241;50.920;6.936;2022-08-19T04:25:43;19.20;99.90
2459;DHT22;1241;50.920;6.936;2022-08-19T04:28:12;19.20;99.90
2459;DHT22;1241;50.920;6.936;2022-08-19T04:30:48;19.20;99.90
2459;DHT22;1241;50.920;6.936;2022-08-19T04:33:16;19.20;99.90
2459;DHT22;1241;50.920;6.936;2022-08-19T04:35:44;19.20;99.90
2459;DHT22;1241;50.920;6.936;2022-08-19T04:38:11;19.30;99.90
2459;DHT22;1241;50.920;6.936;2022-08-19T04:40:43;19.30;99.90
2459;DHT22;1241;50.920;6.936;2022-08-19T04:43:27;19.40;99.90
2459;DHT22;1241;50.920;6.936;2022-08-19T04:45:53;19.40;99.90
2459;DHT22;1241;50.920;6.936;2022-08-19T04:48:20;19.30;99.90
2459;DHT22;1241;50.920;6.936;2022-08-19T04:50:52;19.40;99.90
2459;DHT22;1241;50.920;6.936;2022-08-19T04:53:30;19.40;99.90
2459;DHT22;1241;50.920;6.936;2022-08-19T04:56:03;19.50;99.90
2459;DHT22;1241;50.920;6.936;2022-08-19T04:58:29;19.60;99.90
2459;DHT22;1241;50.920;6.936;2022-08-19T05:00:55;19.60;99.90
2459;DHT22;1241;50.920;6.936;2022-08-19T05:03:21;19.60;99.90
2459;DHT22;1241;50.920;6.936;2022-08-19T05:05:48;19.80;99.90
2459;DHT22;1241;50.920;6.936;2022-08-19T05:08:17;19.90;99.90
2459;DHT22;1241;50.920;6.936;2022-08-19T05:10:51;19.90;99.90
2459;DHT22;1241;50.920;6.936;2022-08-19T05:13:19;19.90;99.90
2459;DHT22;1241;50.920;6.936;2022-08-19T05:15:53;20.00;99.90
2459;DHT22;1241;50.920;6.936;2022-08-19T05:18:19;19.90;99.90
2459;DHT22;1241;50.920;6.936;2022-08-19T05:21:08;19.90;99.90
2459;DHT22;1241;50.920;6.936;2022-08-19T05:23:53;19.90;99.90
2459;DHT22;1241;50.920;6.936;2022-08-19T05:26:19;20.00;99.90
2459;DHT22;1241;50.920;6.936;2022-08-19T05:28:44;20.00;99.90
2459;DHT22;1241;50.920;6.936;2022-08-19T05:31:10;20.10;99.90
2459;DHT22;1241;50.920;6.936;2022-08-19T05:33:36;20.10;99.90
2459;DHT22;1241;50.920;6.936;2022-08-19T05:36:03;20.10;99.90
2459;DHT22;1241;50.920;6.936;2022-08-19T05:38:28;20.20;99.90
2459;DHT22;1241;50.920;6.936;2022-08-19T05:40:55;20.20;99.90
2459;DHT22;1241;50.920;6.936;2022-08-19T05:43:21;20.20;99.90
2459;DHT22;1241;50.920;6.936;2022-08-19T05:45:47;20.20;99.90
2459;DHT22;1241;50.920;6.936;2022-08-19T05:48:13;20.20;99.90
2459;DHT22;1241;50.920;6.936;2022-08-19T05:50:41;20.20;99.90
2459;DHT22;1241;50.920;6.936;2022-08-19T05:53:07;20.20;99.90
2459;DHT22;1241;50.920;6.936;2022-08-19T05:55:34;20.20;99.90
2459;DHT22;1241;50.920;6.936;2022-08-19T05:58:00;20.30;99.90
2459;DHT22;1241;50.920;6.936;2022-08-19T06:00:27;20.20;99.90
2459;DHT22;1241;50.920;6.936;2022-08-19T06:02:53;20.30;99.90
2459;DHT22;1241;50.920;6.936;2022-08-19T06:05:19;20.40;99.90
2459;DHT22;1241;50.920;6.936;2022-08-19T06:07:45;20.40;99.90
2459;DHT22;1241;50.920;6.936;2022-08-19T06:10:13;20.50;99.90
2459;DHT22;1241;50.920;6.936;2022-08-19T06:12:39;20.70;99.90
2459;DHT22;1241;50.920;6.936;2022-08-19T06:15:09;21.00;99.90
2459;DHT22;1241;50.920;6.936;2022-08-19T06:17:35;21.20;99.90
2459;DHT22;1241;50.920;6.936;2022-08-19T06:20:04;21.40;99.90
2459;DHT22;1241;50.920;6.936;2022-08-19T06:22:30;21.60;99.90
2459;DHT22;1241;50.920;6.936;2022-08-19T06:24:55;21.70;99.90
2459;DHT22;1241;50.920;6.936;2022-08-19T06:27:22;21.80;99.90
2459;DHT22;1241;50.920;6.936;2022-08-19T06:29:49;22.00;99.90
2459;DHT22;1241;50.920;6.936;2022-08-19T06:32:16;22.00;99.90
2459;DHT22;1241;50.920;6.936;2022-08-19T06:34:42;22.20;99.90
2459;DHT22;1241;50.920;6.936;2022-08-19T06:37:08;22.50;99.90
2459;DHT22;1241;50.920;6.936;2022-08-19T06:39:37;22.80;99.90
2459;DHT22;1241;50.920;6.936;2022-08-19T06:42:05;23.10;99.90
2459;DHT22;1241;50.920;6.936;2022-08-19T06:44:35;23.30;99.90
2459;DHT22;1241;50.920;6.936;2022-08-19T06:47:06;23.50;99.90
2459;DHT22;1241;50.920;6.936;2022-08-19T06:49:33;23.80;99.90
2459;DHT22;1241;50.920;6.936;2022-08-19T06:51:59;24.20;99.90
2459;DHT22;1241;50.920;6.936;2022-08-19T06:54:26;24.40;99.90
2459;DHT22;1241;50.920;6.936;2022-08-19T06:56:53;24.80;99.90
2459;DHT22;1241;50.920;6.936;2022-08-19T06:59:21;25.00;99.90
2459;DHT22;1241;50.920;6.936;2022-08-19T07:01:50;25.10;99.90
2459;DHT22;1241;50.920;6.936;2022-08-19T07:04:22;25.30;99.90
2459;DHT22;1241;50.920;6.936;2022-08-19T07:06:48;25.50;99.90
2459;DHT22;1241;50.920;6.936;2022-08-19T07:09:17;25.50;99.90
2459;DHT22;1241;50.920;6.936;2022-08-19T07:11:47;25.50;99.90
2459;DHT22;1241;50.920;6.936;2022-08-19T07:14:15;25.50;99.90
2459;DHT22;1241;50.920;6.936;2022-08-19T07:16:44;25.40;99.90
2459;DHT22;1241;50.920;6.936;2022-08-19T07:19:11;25.60;99.90
2459;DHT22;1241;50.920;6.936;2022-08-19T07:21:37;25.60;99.90
2459;DHT22;1241;50.920;6.936;2022-08-19T07:24:03;25.60;99.90
2459;DHT22;1241;50.920;6.936;2022-08-19T07:26:32;25.70;99.90
2459;DHT22;1241;50.920;6.936;2022-08-19T07:28:58;25.60;99.90
2459;DHT22;1241;50.920;6.936;2022-08-19T07:31:28;25.70;99.90
2459;DHT22;1241;50.920;6.936;2022-08-19T07:33:55;25.60;99.90
2459;DHT22;1241;50.920;6.936;2022-08-19T07:36:24;25.50;99.90
2459;DHT22;1241;50.920;6.936;2022-08-19T07:38:51;25.40;99.90
2459;DHT22;1241;50.920;6.936;2022-08-19T07:41:20;25.20;99.90
2459;DHT22;1241;50.920;6.936;2022-08-19T07:43:47;24.90;99.90
2459;DHT22;1241;50.920;6.936;2022-08-19T07:46:14;24.50;99.90
2459;DHT22;1241;50.920;6.936;2022-08-19T07:48:42;24.30;99.90
2459;DHT22;1241;50.920;6.936;2022-08-19T07:51:09;24.20;99.90
2459;DHT22;1241;50.920;6.936;2022-08-19T07:53:36;23.90;99.90
2459;DHT22;1241;50.920;6.936;2022-08-19T07:56:04;23.80;99.90
2459;DHT22;1241;50.920;6.936;2022-08-19T07:58:32;23.80;99.90
2459;DHT22;1241;50.920;6.936;2022-08-19T08:00:59;23.80;99.90
2459;DHT22;1241;50.920;6.936;2022-08-19T08:03:26;23.80;99.90
2459;DHT22;1241;50.920;6.936;2022-08-19T08:06:13;23.90;99.90
2459;DHT22;1241;50.920;6.936;2022-08-19T08:08:57;23.90;99.90
2459;DHT22;1241;50.920;6.936;2022-08-19T08:11:46;24.00;99.90
2459;DHT22;1241;50.920;6.936;2022-08-19T08:14:22;23.90;99.90
2459;DHT22;1241;50.920;6.936;2022-08-19T08:16:48;23.80;99.90
2459;DHT22;1241;50.920;6.936;2022-08-19T08:19:17;23.60;99.90
2459;DHT22;1241;50.920;6.936;2022-08-19T08:21:43;23.60;99.90
2459;DHT22;1241;50.920;6.936;2022-08-19T08:24:09;23.70;99.90
2459;DHT22;1241;50.920;6.936;2022-08-19T08:26:36;23.80;99.90
2459;DHT22;1241;50.920;6.936;2022-08-19T08:29:02;23.90;99.90
2459;DHT22;1241;50.920;6.936;2022-08-19T08:31:27;24.20;99.90
2459;DHT22;1241;50.920;6.936;2022-08-19T08:33:54;24.50;99.90
2459;DHT22;1241;50.920;6.936;2022-08-19T08:36:20;24.50;99.90
2459;DHT22;1241;50.920;6.936;2022-08-19T08:38:46;24.70;99.90
2459;DHT22;1241;50.920;6.936;2022-08-19T08:43:51;24.90;99.90
2459;DHT22;1241;50.920;6.936;2022-08-19T08:46:22;25.00;99.90
2459;DHT22;1241;50.920;6.936;2022-08-19T08:48:58;25.00;99.90
2459;DHT22;1241;50.920;6.936;2022-08-19T08:51:49;25.00;99.90
2459;DHT22;1241;50.920;6.936;2022-08-19T08:54:20;25.30;99.90
2459;DHT22;1241;50.920;6.936;2022-08-19T08:56:49;25.50;99.90
2459;DHT22;1241;50.920;6.936;2022-08-19T08:59:19;25.90;99.90
2459;DHT22;1241;50.920;6.936;2022-08-19T09:01:46;26.00;99.90
2459;DHT22;1241;50.920;6.936;2022-08-19T09:04:12;26.10;99.90
2459;DHT22;1241;50.920;6.936;2022-08-19T09:09:32;26.20;99.90
2459;DHT22;1241;50.920;6.936;2022-08-19T09:17:16;27.00;99.90
2459;DHT22;1241;50.920;6.936;2022-08-19T09:19:55;27.30;99.90
2459;DHT22;1241;50.920;6.936;2022-08-19T09:22:21;27.40;99.90
2459;DHT22;1241;50.920;6.936;2022-08-19T09:24:51;27.50;99.90
2459;DHT22;1241;50.920;6.936;2022-08-19T09:27:20;27.60;99.90
2459;DHT22;1241;50.920;6.936;2022-08-19T09:29:49;27.70;99.90
2459;DHT22;1241;50.920;6.936;2022-08-19T09:32:16;27.70;99.90
2459;DHT22;1241;50.920;6.936;2022-08-19T09:34:43;27.60;99.90
2459;DHT22;1241;50.920;6.936;2022-08-19T09:37:09;27.50;99.90
2459;DHT22;1241;50.920;6.936;2022-08-19T09:39:35;27.60;99.90
2459;DHT22;1241;50.920;6.936;2022-08-19T09:42:01;27.50;99.90
2459;DHT22;1241;50.920;6.936;2022-08-19T09:44:29;27.50;99.90
2459;DHT22;1241;50.920;6.936;2022-08-19T09:46:55;27.40;99.90
2459;DHT22;1241;50.920;6.936;2022-08-19T09:49:21;27.20;99.90
2459;DHT22;1241;50.920;6.936;2022-08-19T09:51:51;27.10;99.90
2459;DHT22;1241;50.920;6.936;2022-08-19T09:54:19;27.00;99.90
2459;DHT22;1241;50.920;6.936;2022-08-19T09:56:44;26.90;99.90
2459;DHT22;1241;50.920;6.936;2022-08-19T09:59:10;26.80;99.90
2459;DHT22;1241;50.920;6.936;2022-08-19T10:01:38;26.70;99.90
2459;DHT22;1241;50.920;6.936;2022-08-19T10:04:04;26.50;99.90
2459;DHT22;1241;50.920;6.936;2022-08-19T10:06:34;26.50;99.90
2459;DHT22;1241;50.920;6.936;2022-08-19T10:09:01;26.40;99.90
2459;DHT22;1241;50.920;6.936;2022-08-19T10:11:28;26.50;99.90
2459;DHT22;1241;50.920;6.936;2022-08-19T10:13:54;26.60;99.90
2459;DHT22;1241;50.920;6.936;2022-08-19T10:16:22;26.70;99.90
2459;DHT22;1241;50.920;6.936;2022-08-19T10:18:48;26.90;99.90
2459;DHT22;1241;50.920;6.936;2022-08-19T10:21:29;26.90;99.90
2459;DHT22;1241;50.920;6.936;2022-08-19T10:23:58;27.10;99.90
2459;DHT22;1241;50.920;6.936;2022-08-19T10:26:30;27.30;99.90
2459;DHT22;1241;50.920;6.936;2022-08-19T10:28:56;27.50;99.90
2459;DHT22;1241;50.920;6.936;2022-08-19T10:31:26;27.70;99.90
2459;DHT22;1241;50.920;6.936;2022-08-19T10:33:52;28.00;99.90
2459;DHT22;1241;50.920;6.936;2022-08-19T10:36:33;27.90;99.90
2459;DHT22;1241;50.920;6.936;2022-08-19T10:39:04;27.60;99.90
2459;DHT22;1241;50.920;6.936;2022-08-19T10:41:33;27.50;99.90
2459;DHT22;1241;50.920;6.936;2022-08-19T10:44:05;27.50;99.90
2459;DHT22;1241;50.920;6.936;2022-08-19T10:46:32;27.50;99.90
2459;DHT22;1241;50.920;6.936;2022-08-19T10:49:00;27.50;99.90
2459;DHT22;1241;50.920;6.936;2022-08-19T10:51:26;27.50;99.90
2459;DHT22;1241;50.920;6.936;2022-08-19T10:54:10;27.90;99.90
2459;DHT22;1241;50.920;6.936;2022-08-19T10:56:36;28.30;99.90
2459;DHT22;1241;50.920;6.936;2022-08-19T10:59:19;28.40;99.90
2459;DHT22;1241;50.920;6.936;2022-08-19T11:01:46;28.40;99.90
2459;DHT22;1241;50.920;6.936;2022-08-19T11:04:13;28.60;99.90
2459;DHT22;1241;50.920;6.936;2022-08-19T11:06:41;28.70;99.90
2459;DHT22;1241;50.920;6.936;2022-08-19T11:09:09;28.60;99.90
2459;DHT22;1241;50.920;6.936;2022-08-19T11:11:36;28.40;99.90
2459;DHT22;1241;50.920;6.936;2022-08-19T11:14:07;28.00;99.90
2459;DHT22;1241;50.920;6.936;2022-08-19T11:16:33;27.80;99.90
2459;DHT22;1241;50.920;6.936;2022-08-19T11:18:59;27.50;99.90
2459;DHT22;1241;50.920;6.936;2022-08-19T11:21:29;27.40;99.90
2459;DHT22;1241;50.920;6.936;2022-08-19T11:24:02;27.40;99.90
2459;DHT22;1241;50.920;6.936;2022-08-19T11:26:30;27.60;99.90
2459;DHT22;1241;50.920;6.936;2022-08-19T11:28:57;27.70;99.90
2459;DHT22;1241;50.920;6.936;2022-08-19T11:31:26;27.70;99.90
2459;DHT22;1241;50.920;6.936;2022-08-19T11:33:52;27.60;99.90
2459;DHT22;1241;50.920;6.936;2022-08-19T11:36:20;27.70;99.90
2459;DHT22;1241;50.920;6.936;2022-08-19T11:38:48;27.70;99.90
2459;DHT22;1241;50.920;6.936;2022-08-19T11:41:16;27.60;99.90
2459;DHT22;1241;50.920;6.936;2022-08-19T11:43:41;27.70;99.90
2459;DHT22;1241;50.920;6.936;2022-08-19T11:46:10;27.70;99.90
2459;DHT22;1241;50.920;6.936;2022-08-19T11:48:37;27.70;99.90
2459;DHT22;1241;50.920;6.936;2022-08-19T11:51:13;27.70;99.90
2459;DHT22;1241;50.920;6.936;2022-08-19T11:53:39;27.70;99.90
2459;DHT22;1241;50.920;6.936;2022-08-19T11:56:06;27.90;99.90
2459;DHT22;1241;50.920;6.936;2022-08-19T11:58:33;28.00;99.90
2459;DHT22;1241;50.920;6.936;2022-08-19T12:00:59;27.90;99.90
2459;DHT22;1241;50.920;6.936;2022-08-19T12:03:26;28.00;99.90
2459;DHT22;1241;50.920;6.936;2022-08-19T12:05:51;28.30;99.90
2459;DHT22;1241;50.920;6.936;2022-08-19T12:08:18;28.40;99.90
2459;DHT22;1241;50.920;6.936;2022-08-19T12:10:44;28.40;99.90
2459;DHT22;1241;50.920;6.936;2022-08-19T12:13:12;28.50;99.90
2459;DHT22;1241;50.920;6.936;2022-08-19T12:15:44;28.60;99.90
2459;DHT22;1241;50.920;6.936;2022-08-19T12:18:11;28.50;99.90
2459;DHT22;1241;50.920;6.936;2022-08-19T12:20:40;28.30;99.90
2459;DHT22;1241;50.920;6.936;2022-08-19T12:23:07;28.10;99.90
2459;DHT22;1241;50.920;6.936;2022-08-19T12:25:43;28.00;99.90
2459;DHT22;1241;50.920;6.936;2022-08-19T12:28:13;28.00;99.90
2459;DHT22;1241;50.920;6.936;2022-08-19T12:30:39;27.90;99.90
2459;DHT22;1241;50.920;6.936;2022-08-19T12:33:05;27.80;99.90
2459;DHT22;1241;50.920;6.936;2022-08-19T12:35:30;27.80;99.90
2459;DHT22;1241;50.920;6.936;2022-08-19T12:37:56;27.60;99.90
2459;DHT22;1241;50.920;6.936;2022-08-19T12:40:21;27.50;99.90
2459;DHT22;1241;50.920;6.936;2022-08-19T12:42:47;27.50;99.90
2459;DHT22;1241;50.920;6.936;2022-08-19T12:45:16;27.60;99.90
2459;DHT22;1241;50.920;6.936;2022-08-19T12:47:42;27.50;99.90
2459;DHT22;1241;50.920;6.936;2022-08-19T12:50:08;27.60;99.90
2459;DHT22;1241;50.920;6.936;2022-08-19T12:52:36;27.80;99.90
2459;DHT22;1241;50.920;6.936;2022-08-19T12:55:08;28.00;99.90
2459;DHT22;1241;50.920;6.936;2022-08-19T12:57:34;28.00;99.90
2459;DHT22;1241;50.920;6.936;2022-08-19T13:00:13;28.00;99.90
2459;DHT22;1241;50.920;6.936;2022-08-19T13:02:40;28.20;99.90
2459;DHT22;1241;50.920;6.936;2022-08-19T13:05:09;28.40;99.90
2459;DHT22;1241;50.920;6.936;2022-08-19T13:07:37;28.40;99.90
2459;DHT22;1241;50.920;6.936;2022-08-19T13:10:05;28.30;99.90
2459;DHT22;1241;50.920;6.936;2022-08-19T13:12:31;28.10;99.90
2459;DHT22;1241;50.920;6.936;2022-08-19T13:14:57;27.90;99.90
2459;DHT22;1241;50.920;6.936;2022-08-19T13:17:23;27.80;99.90
2459;DHT22;1241;50.920;6.936;2022-08-19T13:19:49;27.90;99.90
2459;DHT22;1241;50.920;6.936;2022-08-19T13:22:16;27.90;99.90
2459;DHT22;1241;50.920;6.936;2022-08-19T13:24:42;28.00;99.90
2459;DHT22;1241;50.920;6.936;2022-08-19T13:27:07;28.00;99.90
2459;DHT22;1241;50.920;6.936;2022-08-19T13:29:33;27.80;99.90
2459;DHT22;1241;50.920;6.936;2022-08-19T13:32:18;27.70;99.90
2459;DHT22;1241;50.920;6.936;2022-08-19T13:35:03;27.50;99.90
2459;DHT22;1241;50.920;6.936;2022-08-19T13:37:29;27.30;99.90
2459;DHT22;1241;50.920;6.936;2022-08-19T13:40:25;27.30;99.90
2459;DHT22;1241;50.920;6.936;2022-08-19T13:42:53;27.50;99.90
2459;DHT22;1241;50.920;6.936;2022-08-19T13:45:21;27.50;99.90
2459;DHT22;1241;50.920;6.936;2022-08-19T13:47:53;27.50;99.90
2459;DHT22;1241;50.920;6.936;2022-08-19T13:50:23;27.50;99.90
2459;DHT22;1241;50.920;6.936;2022-08-19T13:52:51;27.50;99.90
2459;DHT22;1241;50.920;6.936;2022-08-19T13:55:18;27.60;99.90
2459;DHT22;1241;50.920;6.936;2022-08-19T13:57:44;27.70;99.90
2459;DHT22;1241;50.920;6.936;2022-08-19T14:00:16;27.70;99.90
2459;DHT22;1241;50.920;6.936;2022-08-19T14:05:51;27.80;99.90
2459;DHT22;1241;50.920;6.936;2022-08-19T14:08:17;27.90;99.90
2459;DHT22;1241;50.920;6.936;2022-08-19T14:10:43;27.80;99.90
2459;DHT22;1241;50.920;6.936;2022-08-19T14:16:59;27.70;99.90
2459;DHT22;1241;50.920;6.936;2022-08-19T14:19:24;27.70;99.90
2459;DHT22;1241;50.920;6.936;2022-08-19T14:21:50;27.70;99.90
2459;DHT22;1241;50.920;6.936;2022-08-19T14:24:16;27.50;99.90
2459;DHT22;1241;50.920;6.936;2022-08-19T14:26:41;27.50;99.90
2459;DHT22;1241;50.920;6.936;2022-08-19T14:29:07;27.50;99.90
2459;DHT22;1241;50.920;6.936;2022-08-19T14:31:33;27.50;99.90
2459;DHT22;1241;50.920;6.936;2022-08-19T14:33:59;27.50;99.90
2459;DHT22;1241;50.920;6.936;2022-08-19T14:36:24;27.60;99.90
2459;DHT22;1241;50.920;6.936;2022-08-19T14:38:50;27.60;99.90
2459;DHT22;1241;50.920;6.936;2022-08-19T14:41:22;27.60;99.90
2459;DHT22;1241;50.920;6.936;2022-08-19T14:43:50;27.60;99.90
2459;DHT22;1241;50.920;6.936;2022-08-19T14:50:03;27.70;99.90
2459;DHT22;1241;50.920;6.936;2022-08-19T14:52:32;27.70;99.90
2459;DHT22;1241;50.920;6.936;2022-08-19T14:55:33;27.70;99.90
2459;DHT22;1241;50.920;6.936;2022-08-19T14:58:14;27.60;99.90
2459;DHT22;1241;50.920;6.936;2022-08-19T15:00:59;27.50;99.90
2459;DHT22;1241;50.920;6.936;2022-08-19T15:03:47;27.50;99.90
2459;DHT22;1241;50.920;6.936;2022-08-19T15:06:34;27.60;99.90
2459;DHT22;1241;50.920;6.936;2022-08-19T15:09:00;27.60;99.90
2459;DHT22;1241;50.920;6.936;2022-08-19T15:11:28;27.60;99.90
2459;DHT22;1241;50.920;6.936;2022-08-19T15:13:56;27.60;99.90
2459;DHT22;1241;50.920;6.936;2022-08-19T15:16:23;27.70;99.90
2459;DHT22;1241;50.920;6.936;2022-08-19T15:18:53;27.60;99.90
2459;DHT22;1241;50.920;6.936;2022-08-19T15:21:20;27.60;99.90
2459;DHT22;1241;50.920;6.936;2022-08-19T15:23:47;27.60;99.90
2459;DHT22;1241;50.920;6.936;2022-08-19T15:26:15;27.60;99.90
2459;DHT22;1241;50.920;6.936;2022-08-19T15:28:41;27.60;99.90
2459;DHT22;1241;50.920;6.936;2022-08-19T15:31:08;27.70;99.90
2459;DHT22;1241;50.920;6.936;2022-08-19T15:33:35;27.70;99.90
2459;DHT22;1241;50.920;6.936;2022-08-19T15:36:22;27.70;99.90
2459;DHT22;1241;50.920;6.936;2022-08-19T15:38:48;27.70;99.90
2459;DHT22;1241;50.920;6.936;2022-08-19T15:41:21;27.60;99.90
2459;DHT22;1241;50.920;6.936;2022-08-19T15:43:58;27.60;99.90
2459;DHT22;1241;50.920;6.936;2022-08-19T15:46:26;27.40;99.90
2459;DHT22;1241;50.920;6.936;2022-08-19T15:48:54;27.40;99.90
2459;DHT22;1241;50.920;6.936;2022-08-19T15:51:20;27.40;99.90
2459;DHT22;1241;50.920;6.936;2022-08-19T15:53:47;27.50;99.90
2459;DHT22;1241;50.920;6.936;2022-08-19T15:56:13;27.60;99.90
2459;DHT22;1241;50.920;6.936;2022-08-19T15:58:39;27.70;99.90
2459;DHT22;1241;50.920;6.936;2022-08-19T16:04:46;27.70;99.90
2459;DHT22;1241;50.920;6.936;2022-08-19T16:07:30;27.50;99.90
2459;DHT22;1241;50.920;6.936;2022-08-19T16:09:56;27.60;99.90
2459;DHT22;1241;50.920;6.936;2022-08-19T16:12:21;27.80;99.90
2459;DHT22;1241;50.920;6.936;2022-08-19T16:14:52;27.90;99.90
2459;DHT22;1241;50.920;6.936;2022-08-19T16:17:17;28.00;99.90
2459;DHT22;1241;50.920;6.936;2022-08-19T16:19:43;28.00;99.90
2459;DHT22;1241;50.920;6.936;2022-08-19T16:22:09;27.90;99.90
2459;DHT22;1241;50.920;6.936;2022-08-19T16:24:35;27.80;99.90
2459;DHT22;1241;50.920;6.936;2022-08-19T16:27:01;27.60;99.90
2459;DHT22;1241;50.920;6.936;2022-08-19T16:29:29;27.40;99.90
2459;DHT22;1241;50.920;6.936;2022-08-19T16:31:55;27.40;99.90
2459;DHT22;1241;50.920;6.936;2022-08-19T16:34:25;27.40;99.90
2459;DHT22;1241;50.920;6.936;2022-08-19T16:36:50;27.30;99.90